Terminal Aerodrome Forecast
Issued by NWS Missoula, MT

Current Version | Previous Version | Text Only | Print | Product List | Glossary On
Versions: 1 2 3 4 5 6 7 8 9 10 11 12 13 14 15 16
000
FTUS45 KMSO 161120
TAFMSO
TAF
KMSO 161120Z 1612/1712 VRB02KT 6SM HZ SCT250
     FM161330 00000KT 1 1/2SM BR VCFG BKN005
     FM161500 00000KT 4SM BR VCFG SCT008
     FM161800 VRB03KT 6SM HZ FEW008 SCT250=

USA.gov is the U.S. government's official web portal to all federal, state and local government web resources and services.